Time;durP1;ratioP1;P1;durP2;ratioP2;P2;SDS_P1;SDS_P2;PMS_P1;PMS_P2;Temp;Humidity;BMP_temperature;BMP_pressure;BME280_temperature;BME280_humidity;BME280_pressure;Samples;Min_cycle;Max_cycle;Signal;HPM_P1;HPM_P2
2023/07/27 00:01:10;;;;;;;5.77;3.80;;;16.70;99.90;;;;;;5035606;28;20453;-80
2023/07/27 00:03:37;;;;;;;4.27;3.60;;;16.70;99.90;;;;;;5039302;28;20839;-80
2023/07/27 00:06:04;;;;;;;5.67;4.07;;;16.70;99.90;;;;;;5037526;28;20536;-80
2023/07/27 00:08:31;;;;;;;6.57;3.37;;;16.70;99.90;;;;;;5038648;28;20443;-80
2023/07/27 00:10:59;;;;;;;5.90;3.40;;;16.70;99.90;;;;;;5039278;28;20537;-80
2023/07/27 00:13:26;;;;;;;5.27;3.60;;;16.70;99.90;;;;;;5038637;28;20909;-80
2023/07/27 00:15:53;;;;;;;4.10;3.70;;;16.70;97.90;;;;;;5038182;28;20456;-80
2023/07/27 00:18:20;;;;;;;4.20;3.50;;;16.70;23.50;;;;;;5038608;28;20460;-80
2023/07/27 00:20:46;;;;;;;6.40;3.03;;;16.70;35.80;;;;;;5039020;28;20550;-81
2023/07/27 00:23:13;;;;;;;7.33;3.80;;;16.70;23.90;;;;;;5038826;28;20581;-80
2023/07/27 00:25:40;;;;;;;4.70;3.80;;;16.70;15.90;;;;;;5039572;28;20440;-81
2023/07/27 00:28:08;;;;;;;7.07;3.23;;;16.70;8.60;;;;;;5041398;28;20543;-80
2023/07/27 00:30:35;;;;;;;4.60;3.33;;;16.60;1.00;;;;;;5043609;28;20488;-80
2023/07/27 00:33:02;;;;;;;4.47;3.50;;;16.60;1.00;;;;;;5044720;28;20452;-80
2023/07/27 00:35:29;;;;;;;6.93;3.27;;;16.60;1.00;;;;;;5043019;28;20904;-80
2023/07/27 00:37:55;;;;;;;4.40;2.90;;;16.60;1.00;;;;;;5044291;28;20484;-80
2023/07/27 00:40:22;;;;;;;5.77;3.60;;;16.60;1.00;;;;;;5043289;28;20513;-80
2023/07/27 00:42:49;;;;;;;4.70;2.90;;;16.60;1.00;;;;;;5043359;28;20545;-81
2023/07/27 00:45:17;;;;;;;5.10;2.80;;;16.60;1.00;;;;;;5042500;28;20542;-79
2023/07/27 00:47:44;;;;;;;4.97;3.50;;;16.60;1.00;;;;;;5042283;28;20469;-80
2023/07/27 00:50:11;;;;;;;5.20;3.07;;;16.60;1.00;;;;;;5042969;28;20488;-80
2023/07/27 00:52:38;;;;;;;4.60;3.20;;;16.50;23.70;;;;;;5042850;28;20484;-80
2023/07/27 00:55:07;;;;;;;5.63;3.73;;;16.60;1.00;;;;;;5043551;28;20475;-81
2023/07/27 00:57:34;;;;;;;4.23;3.40;;;16.60;1.00;;;;;;5042734;28;20547;-80
2023/07/27 01:00:01;;;;;;;4.83;3.00;;;16.50;6.80;;;;;;5043140;28;20445;-81
2023/07/27 01:02:29;;;;;;;4.33;3.10;;;16.50;22.50;;;;;;5043335;28;20708;-81
2023/07/27 01:04:56;;;;;;;5.07;3.10;;;16.50;32.30;;;;;;5042978;28;21023;-81
2023/07/27 01:07:23;;;;;;;4.40;2.63;;;16.50;34.40;;;;;;5042296;28;20464;-81
2023/07/27 01:09:50;;;;;;;8.40;3.47;;;16.50;35.70;;;;;;5042946;28;20866;-79
2023/07/27 01:12:24;;;;;;;5.20;3.50;;;16.50;90.10;;;;;;5042294;28;20541;-81
2023/07/27 01:15:00;;;;;;;7.50;3.23;;;16.60;69.60;;;;;;5042245;28;20503;-81
2023/07/27 01:17:34;;;;;;;3.70;2.70;;;16.60;92.50;;;;;;5041328;28;20453;-81
2023/07/27 01:20:14;;;;;;;6.47;2.87;;;16.60;99.90;;;;;;5043561;28;20458;-80
2023/07/27 01:23:25;;;;;;;5.10;2.83;;;16.60;92.20;;;;;;5044542;28;20452;-79
2023/07/27 01:26:13;;;;;;;3.00;2.60;;;16.60;78.60;;;;;;5044129;28;20806;-79
2023/07/27 01:28:58;;;;;;;4.30;2.77;;;16.60;57.00;;;;;;5044460;28;20493;-79
2023/07/27 01:31:30;;;;;;;6.53;2.60;;;16.60;68.80;;;;;;5043885;28;20477;-81
2023/07/27 01:34:00;;;;;;;5.97;3.03;;;16.60;94.30;;;;;;5043648;28;20466;-81
2023/07/27 01:36:31;;;;;;;5.10;3.43;;;16.60;99.90;;;;;;5039991;28;20911;-80
2023/07/27 01:39:02;;;;;;;4.27;2.90;;;16.60;99.90;;;;;;5041330;28;20535;-80
2023/07/27 01:41:31;;;;;;;6.20;4.00;;;16.60;99.90;;;;;;5041797;28;20449;-80
2023/07/27 01:44:00;;;;;;;3.80;3.00;;;16.60;99.90;;;;;;5041253;28;20477;-80
2023/07/27 01:46:31;;;;;;;5.33;3.03;;;16.70;99.90;;;;;;5039394;28;20529;-80
2023/07/27 01:48:59;;;;;;;5.50;2.47;;;16.60;99.90;;;;;;5040323;28;20522;-81
2023/07/27 01:51:27;;;;;;;6.50;4.07;;;16.70;29.30;;;;;;5040599;28;20500;-80
2023/07/27 01:53:55;;;;;;;4.73;3.07;;;16.60;1.00;;;;;;5040195;28;20599;-81
2023/07/27 01:56:23;;;;;;;5.27;3.30;;;16.70;1.00;;;;;;5039412;28;20445;-80
2023/07/27 01:58:51;;;;;;;9.40;2.70;;;16.60;49.40;;;;;;5038530;28;20452;-79
2023/07/27 02:01:18;;;;;;;3.60;2.57;;;16.70;74.70;;;;;;5039135;28;20458;-79
2023/07/27 02:03:48;;;;;;;5.70;2.97;;;16.70;99.70;;;;;;5040673;28;20471;-80
2023/07/27 02:06:15;;;;;;;4.00;3.07;;;16.70;66.40;;;;;;5039517;28;20953;-80
2023/07/27 02:08:41;;;;;;;4.57;2.90;;;16.70;1.00;;;;;;5041680;28;20455;-79
2023/07/27 02:11:12;;;;;;;4.60;2.60;;;16.70;1.00;;;;;;5039958;28;20584;-80
2023/07/27 02:13:43;;;;;;;4.40;2.53;;;16.80;99.90;;;;;;5040193;28;20459;-79
2023/07/27 02:16:24;;;;;;;4.77;2.93;;;16.80;1.00;;;;;;5038401;28;20454;-79
2023/07/27 02:18:55;;;;;;;4.90;2.80;;;16.90;1.00;;;;;;5016732;28;20458;-80
2023/07/27 02:21:25;;;;;;;3.70;2.33;;;16.90;1.00;;;;;;5041705;28;20435;-79
2023/07/27 02:23:53;;;;;;;5.97;2.97;;;16.90;1.00;;;;;;5040816;28;20484;-79
2023/07/27 02:26:20;;;;;;;5.30;2.50;;;16.90;1.00;;;;;;5040396;28;20529;-80
2023/07/27 02:28:47;;;;;;;4.53;2.37;;;16.90;1.00;;;;;;5039637;28;20864;-81
2023/07/27 02:31:14;;;;;;;4.23;2.70;;;17.00;1.00;;;;;;5040719;28;20486;-81
2023/07/27 02:33:40;;;;;;;4.43;2.50;;;17.00;1.00;;;;;;5041547;28;20541;-81
2023/07/27 02:36:09;;;;;;;3.30;2.33;;;17.00;79.80;;;;;;5041273;28;20533;-81
2023/07/27 02:38:37;;;;;;;4.43;2.67;;;17.00;1.00;;;;;;5042982;28;20537;-81
2023/07/27 02:41:03;;;;;;;4.20;2.97;;;17.00;1.00;;;;;;5043112;28;20449;-81
2023/07/27 02:43:30;;;;;;;4.10;2.43;;;17.00;35.70;;;;;;5043428;28;20546;-81
2023/07/27 02:46:00;;;;;;;5.27;2.83;;;17.00;99.70;;;;;;5042798;28;20453;-81
2023/07/27 02:48:27;;;;;;;3.70;2.70;;;16.80;27.20;;;;;;5038519;28;20549;-79
2023/07/27 02:50:54;;;;;;;4.40;2.83;;;16.90;96.50;;;;;;5034823;28;21022;-81
2023/07/27 02:53:23;;;;;;;4.70;2.83;;;16.90;91.60;;;;;;5036498;28;20479;-81
2023/07/27 02:55:59;;;;;;;4.23;2.90;;;16.80;1.00;;;;;;5035141;28;20464;-81
2023/07/27 02:58:26;;;;;;;5.00;2.90;;;16.90;92.20;;;;;;5036454;28;20455;-82
2023/07/27 03:00:55;;;;;;;4.90;3.27;;;16.90;99.90;;;;;;5036504;28;20473;-80
2023/07/27 03:03:22;;;;;;;4.80;3.03;;;16.90;99.90;;;;;;5034132;28;20478;-81
2023/07/27 03:05:49;;;;;;;4.27;2.87;;;16.80;99.90;;;;;;5030847;28;20456;-81
2023/07/27 03:08:16;;;;;;;4.30;3.37;;;16.80;99.90;;;;;;5034917;28;20475;-79
2023/07/27 03:10:44;;;;;;;4.30;3.00;;;16.80;99.90;;;;;;5035094;28;20507;-80
2023/07/27 03:13:11;;;;;;;5.00;2.53;;;16.80;99.90;;;;;;5035032;28;20438;-80
2023/07/27 03:15:40;;;;;;;4.07;2.90;;;16.80;99.90;;;;;;5033753;28;20454;-81
2023/07/27 03:18:07;;;;;;;5.20;3.03;;;16.70;99.90;;;;;;5034342;28;20842;-81
2023/07/27 03:20:39;;;;;;;4.77;3.20;;;16.70;99.90;;;;;;5034045;28;20955;-80
2023/07/27 03:23:06;;;;;;;5.63;3.33;;;16.70;99.90;;;;;;5034352;28;20826;-80
2023/07/27 03:25:33;;;;;;;5.50;3.33;;;16.70;99.90;;;;;;5033308;28;20467;-80
2023/07/27 03:28:02;;;;;;;6.50;3.37;;;16.60;99.90;;;;;;5036523;28;20460;-80
2023/07/27 03:30:29;;;;;;;6.03;3.37;;;16.60;99.90;;;;;;5035672;28;20481;-82
2023/07/27 03:32:56;;;;;;;5.40;3.53;;;16.60;99.90;;;;;;5034900;28;20461;-81
2023/07/27 03:35:23;;;;;;;4.60;3.53;;;16.60;99.90;;;;;;5032442;28;20540;-80
2023/07/27 03:37:50;;;;;;;4.97;3.30;;;16.60;99.90;;;;;;5033684;28;20457;-80
2023/07/27 03:40:17;;;;;;;4.73;3.80;;;16.50;99.90;;;;;;5034340;28;20463;-80
2023/07/27 03:42:44;;;;;;;4.17;3.77;;;16.50;99.90;;;;;;5034886;28;20457;-81
2023/07/27 03:45:14;;;;;;;5.07;3.73;;;16.50;99.90;;;;;;5033867;28;20477;-81
2023/07/27 03:47:41;;;;;;;4.70;3.60;;;16.50;99.90;;;;;;5033704;28;20456;-81
2023/07/27 03:50:09;;;;;;;5.43;3.50;;;16.50;99.90;;;;;;5033113;28;20455;-80
2023/07/27 03:52:36;;;;;;;4.63;3.50;;;16.40;99.90;;;;;;5033445;28;20829;-81
2023/07/27 03:55:05;;;;;;;4.90;3.40;;;16.50;99.90;;;;;;5032884;28;20479;-81
2023/07/27 03:57:33;;;;;;;7.13;3.53;;;16.40;99.90;;;;;;5033921;28;20454;-80
2023/07/27 04:00:00;;;;;;;6.13;4.30;;;16.40;99.90;;;;;;5033264;28;20541;-80
2023/07/27 04:02:29;;;;;;;5.50;3.80;;;16.40;99.90;;;;;;5033742;28;20471;-80
2023/07/27 04:04:56;;;;;;;7.97;3.57;;;16.30;99.90;;;;;;5033055;28;20482;-80
2023/07/27 04:07:23;;;;;;;5.57;3.83;;;16.30;99.90;;;;;;5036182;28;20434;-80
2023/07/27 04:09:49;;;;;;;4.53;3.90;;;16.30;99.90;;;;;;5042342;28;20455;-79
2023/07/27 04:12:18;;;;;;;4.70;3.17;;;16.30;99.90;;;;;;5040368;28;20490;-79
2023/07/27 04:14:44;;;;;;;9.70;4.03;;;16.30;99.90;;;;;;5040252;28;20229;-81
2023/07/27 04:17:11;;;;;;;6.33;4.27;;;16.30;99.90;;;;;;5035739;28;20491;-79
2023/07/27 04:19:39;;;;;;;10.20;4.60;;;16.30;99.90;;;;;;5045256;28;20527;-82
2023/07/27 04:22:06;;;;;;;6.63;3.83;;;16.30;99.90;;;;;;5048659;28;20491;-81
2023/07/27 04:24:33;;;;;;;6.63;3.87;;;16.30;99.90;;;;;;5057429;22;20513;-80
2023/07/27 04:27:00;;;;;;;6.57;4.00;;;16.20;99.90;;;;;;5002617;28;20462;-81
2023/07/27 04:29:26;;;;;;;6.20;3.90;;;16.20;99.90;;;;;;5014349;28;20447;-81
2023/07/27 04:31:53;;;;;;;5.07;4.07;;;16.30;99.90;;;;;;5013998;28;20580;-82
2023/07/27 04:34:20;;;;;;;7.20;4.47;;;16.20;99.90;;;;;;5014173;28;20477;-81
2023/07/27 04:36:48;;;;;;;4.67;4.20;;;16.20;99.90;;;;;;5013715;28;20462;-82
2023/07/27 04:39:15;;;;;;;6.57;5.13;;;16.30;99.90;;;;;;5012417;28;20465;-82
2023/07/27 04:41:42;;;;;;;5.30;4.80;;;16.20;99.90;;;;;;5014642;28;20475;-81
2023/07/27 04:44:09;;;;;;;5.77;4.60;;;16.20;99.90;;;;;;5013424;28;20847;-81
2023/07/27 04:46:36;;;;;;;6.27;4.10;;;16.20;99.90;;;;;;5013366;28;20466;-82
2023/07/27 04:49:02;;;;;;;6.63;5.23;;;16.20;99.90;;;;;;5013611;28;20458;-82
2023/07/27 04:51:29;;;;;;;6.10;4.40;;;16.20;99.90;;;;;;5013360;28;20491;-82
2023/07/27 04:53:57;;;;;;;7.17;5.10;;;16.20;99.90;;;;;;5013591;28;20458;-79
2023/07/27 04:56:24;;;;;;;6.53;4.30;;;16.20;99.90;;;;;;5013216;28;20447;-81
2023/07/27 04:58:52;;;;;;;5.37;4.30;;;16.20;99.90;;;;;;5013785;28;20942;-80
2023/07/27 05:01:19;;;;;;;5.27;4.20;;;16.20;99.90;;;;;;5012724;28;20450;-80
2023/07/27 05:03:46;;;;;;;5.80;4.27;;;16.20;99.90;;;;;;5013822;28;20434;-80
2023/07/27 05:06:13;;;;;;;5.50;4.17;;;16.10;99.90;;;;;;5012520;28;20979;-82
2023/07/27 05:08:39;;;;;;;7.60;4.53;;;16.20;99.90;;;;;;4959926;28;20458;-79
2023/07/27 05:11:08;;;;;;;8.43;4.97;;;16.10;99.90;;;;;;5011017;28;20493;-79
2023/07/27 05:13:35;;;;;;;6.87;3.93;;;16.10;99.90;;;;;;5015145;28;20457;-80
2023/07/27 05:16:02;;;;;;;5.50;4.20;;;16.10;99.90;;;;;;5010671;28;20484;-79
2023/07/27 05:18:29;;;;;;;5.17;4.23;;;16.10;99.90;;;;;;4992399;28;20545;-80
2023/07/27 05:20:57;;;;;;;5.00;4.07;;;16.10;99.90;;;;;;5015114;28;20450;-78
2023/07/27 05:23:24;;;;;;;7.60;4.57;;;16.10;99.90;;;;;;5016389;28;20459;-81
2023/07/27 05:25:51;;;;;;;7.73;4.50;;;16.20;99.90;;;;;;4997647;28;20495;-79
2023/07/27 05:28:19;;;;;;;6.60;4.73;;;16.10;99.90;;;;;;4997046;28;20463;-80
2023/07/27 05:30:46;;;;;;;6.23;4.20;;;16.20;99.90;;;;;;5017428;28;20586;-80
2023/07/27 05:33:14;;;;;;;6.90;5.03;;;16.10;99.90;;;;;;5017419;28;20459;-80
2023/07/27 05:35:41;;;;;;;5.40;4.37;;;16.10;99.90;;;;;;5015191;28;20933;-77
2023/07/27 05:38:08;;;;;;;5.73;4.50;;;16.10;99.90;;;;;;5015562;28;20465;-78
2023/07/27 05:40:37;;;;;;;6.63;3.43;;;16.10;99.90;;;;;;5016287;28;20449;-80
2023/07/27 05:43:04;;;;;;;4.47;3.70;;;16.10;99.90;;;;;;5016520;28;20457;-79
2023/07/27 05:45:33;;;;;;;6.00;4.00;;;16.10;99.90;;;;;;5015327;28;20577;-78
2023/07/27 05:48:00;;;;;;;5.07;3.60;;;16.10;99.90;;;;;;5017386;28;20488;-80
2023/07/27 05:50:26;;;;;;;7.47;3.90;;;16.10;99.90;;;;;;5015545;28;21030;-80
2023/07/27 05:52:53;;;;;;;8.93;4.60;;;16.00;99.90;;;;;;5017156;28;20504;-80
2023/07/27 05:55:20;;;;;;;5.63;3.80;;;15.90;99.90;;;;;;5013693;28;20492;-79
2023/07/27 05:57:47;;;;;;;5.97;3.33;;;15.80;99.90;;;;;;5017185;28;20456;-80
2023/07/27 06:00:14;;;;;;;6.07;3.27;;;15.90;99.90;;;;;;5015998;28;21057;-80
2023/07/27 06:02:44;;;;;;;5.20;3.53;;;15.90;99.90;;;;;;5012342;28;20460;-78
2023/07/27 06:05:12;;;;;;;4.80;3.33;;;15.80;99.90;;;;;;5017743;28;20903;-77
2023/07/27 06:07:38;;;;;;;4.67;3.50;;;15.80;99.90;;;;;;5009052;28;20480;-79
2023/07/27 06:10:06;;;;;;;3.73;3.27;;;15.80;99.90;;;;;;5010971;28;20461;-80
2023/07/27 06:12:33;;;;;;;5.63;3.50;;;15.80;99.90;;;;;;5011261;28;21012;-80
2023/07/27 06:15:00;;;;;;;5.43;4.03;;;15.80;99.90;;;;;;5006892;28;21056;-80
2023/07/27 06:17:28;;;;;;;5.93;3.30;;;15.80;99.90;;;;;;5012906;28;20540;-80
2023/07/27 06:19:56;;;;;;;4.67;3.20;;;15.90;99.90;;;;;;5014837;28;20591;-80
2023/07/27 06:22:23;;;;;;;7.40;3.80;;;15.90;99.90;;;;;;5014606;28;20541;-79
2023/07/27 06:24:49;;;;;;;4.27;3.43;;;16.00;99.90;;;;;;5013830;28;20492;-79
2023/07/27 06:27:16;;;;;;;3.67;3.10;;;16.00;99.90;;;;;;5010696;28;20456;-81
2023/07/27 06:29:43;;;;;;;4.13;2.80;;;16.10;99.90;;;;;;5010348;28;20450;-80
2023/07/27 06:32:10;;;;;;;4.10;3.23;;;16.00;99.90;;;;;;5011853;28;20541;-79
2023/07/27 06:34:37;;;;;;;3.30;2.47;;;16.00;99.90;;;;;;5009795;28;20474;-81
2023/07/27 06:37:07;;;;;;;8.40;3.07;;;16.00;99.90;;;;;;5015592;28;20888;-79
2023/07/27 06:39:34;;;;;;;3.97;2.40;;;16.00;99.90;;;;;;5014243;28;20472;-81
2023/07/27 06:42:00;;;;;;;5.17;3.03;;;16.10;99.90;;;;;;5017285;28;20458;-80
2023/07/27 06:44:27;;;;;;;3.60;3.20;;;16.00;99.90;;;;;;5023358;28;20464;-81
2023/07/27 06:46:54;;;;;;;4.43;2.80;;;16.10;99.90;;;;;;5012858;28;20540;-79
2023/07/27 06:49:21;;;;;;;4.13;2.50;;;16.10;99.90;;;;;;5018838;28;20454;-80
2023/07/27 06:51:48;;;;;;;4.53;2.90;;;16.10;99.90;;;;;;5017813;28;21013;-78
2023/07/27 06:54:17;;;;;;;6.90;2.77;;;16.00;99.90;;;;;;5018997;28;20528;-77
2023/07/27 06:56:44;;;;;;;6.50;2.47;;;16.00;99.90;;;;;;5014317;28;20458;-79
2023/07/27 06:59:11;;;;;;;5.90;2.70;;;16.10;99.90;;;;;;5014154;28;20450;-78
2023/07/27 07:01:37;;;;;;;4.00;2.40;;;16.10;99.90;;;;;;5009893;28;20553;-79
2023/07/27 07:04:05;;;;;;;3.57;2.10;;;16.10;99.90;;;;;;5011341;28;20511;-78
2023/07/27 07:06:32;;;;;;;4.67;2.80;;;16.20;99.90;;;;;;5012819;28;20461;-81
2023/07/27 07:08:59;;;;;;;3.80;2.43;;;16.10;99.90;;;;;;5012021;28;20472;-80
2023/07/27 07:11:27;;;;;;;4.63;2.30;;;16.10;99.90;;;;;;5007937;28;20508;-80
2023/07/27 07:13:54;;;;;;;5.70;2.30;;;16.20;99.90;;;;;;5011750;28;20472;-80
2023/07/27 07:16:21;;;;;;;2.90;2.10;;;16.20;99.90;;;;;;5011822;28;20460;-80
2023/07/27 07:18:47;;;;;;;2.47;2.00;;;16.10;99.90;;;;;;5006640;28;20551;-78
2023/07/27 07:21:14;;;;;;;2.63;1.90;;;16.10;99.90;;;;;;5012369;28;20460;-81
2023/07/27 07:23:41;;;;;;;3.07;2.27;;;16.10;99.90;;;;;;5010588;28;20468;-80
2023/07/27 07:26:08;;;;;;;2.77;2.47;;;16.10;99.90;;;;;;5016002;28;20480;-80
2023/07/27 07:28:36;;;;;;;2.97;2.30;;;16.20;99.90;;;;;;5015557;28;20451;-79
2023/07/27 07:31:03;;;;;;;3.20;2.40;;;16.30;99.90;;;;;;5009943;28;20545;-77
2023/07/27 07:33:30;;;;;;;2.93;2.33;;;16.20;99.90;;;;;;5009037;28;20532;-78
2023/07/27 07:35:57;;;;;;;3.70;2.50;;;16.30;99.90;;;;;;5012064;28;20823;-78
2023/07/27 07:38:24;;;;;;;2.23;1.50;;;16.40;99.90;;;;;;5009318;28;20458;-80
2023/07/27 07:40:50;;;;;;;2.57;1.67;;;16.50;99.90;;;;;;5010458;28;20562;-80
2023/07/27 07:43:19;;;;;;;2.60;1.70;;;16.40;99.90;;;;;;5011432;28;20510;-79
2023/07/27 07:45:48;;;;;;;4.43;1.67;;;16.40;99.90;;;;;;5011237;28;20556;-81
2023/07/27 07:48:14;;;;;;;3.23;1.83;;;16.40;99.90;;;;;;5013053;28;20450;-80
2023/07/27 07:50:41;;;;;;;4.83;2.10;;;16.40;99.90;;;;;;5014160;28;20546;-79
2023/07/27 07:53:08;;;;;;;2.40;2.17;;;16.50;99.90;;;;;;5013135;28;20485;-80
2023/07/27 07:55:36;;;;;;;3.43;1.90;;;16.50;99.90;;;;;;5012883;28;20477;-79
2023/07/27 07:58:03;;;;;;;3.20;1.90;;;16.50;99.90;;;;;;5013421;28;20523;-80
2023/07/27 08:00:30;;;;;;;3.27;2.10;;;16.50;99.90;;;;;;5015217;28;20494;-81
2023/07/27 08:02:58;;;;;;;2.40;1.83;;;16.50;99.90;;;;;;5016377;28;20595;-82
2023/07/27 08:05:25;;;;;;;4.30;2.30;;;16.50;99.90;;;;;;5013631;28;21018;-80
2023/07/27 08:07:52;;;;;;;2.70;1.77;;;16.50;99.90;;;;;;5015137;28;20461;-79
2023/07/27 08:10:19;;;;;;;2.80;1.97;;;16.50;99.90;;;;;;5017353;28;20453;-78
2023/07/27 08:12:49;;;;;;;3.70;2.07;;;16.50;99.90;;;;;;5012095;28;20490;-79
2023/07/27 08:15:17;;;;;;;4.40;1.70;;;16.50;99.90;;;;;;5010590;28;20542;-80
2023/07/27 08:17:44;;;;;;;4.20;1.67;;;16.50;99.90;;;;;;5013931;28;20491;-80
2023/07/27 08:20:13;;;;;;;3.50;1.70;;;16.50;99.90;;;;;;5008633;28;20527;-80
2023/07/27 08:22:39;;;;;;;1.80;1.47;;;16.50;99.90;;;;;;5019177;28;20460;-80
2023/07/27 08:25:07;;;;;;;2.27;1.80;;;16.50;99.90;;;;;;5011018;28;21657;-76
2023/07/27 08:27:36;;;;;;;2.17;1.80;;;16.50;99.90;;;;;;5010925;28;20472;-80
2023/07/27 08:30:03;;;;;;;3.20;1.80;;;16.60;99.90;;;;;;5012893;28;20478;-78
2023/07/27 08:32:30;;;;;;;2.70;1.50;;;16.70;99.90;;;;;;5012649;28;20488;-79
2023/07/27 08:34:56;;;;;;;3.77;2.47;;;16.70;99.90;;;;;;5007368;28;20593;-79
2023/07/27 08:37:24;;;;;;;3.17;2.40;;;16.70;99.90;;;;;;5012037;28;20985;-79
2023/07/27 08:39:51;;;;;;;3.03;2.30;;;16.70;99.90;;;;;;5013667;28;20449;-78
2023/07/27 08:42:20;;;;;;;2.50;2.07;;;16.70;99.90;;;;;;5014960;28;20452;-81
2023/07/27 08:44:47;;;;;;;2.00;1.60;;;16.80;99.90;;;;;;5012598;28;20843;-83
2023/07/27 08:47:15;;;;;;;2.00;1.73;;;16.80;99.90;;;;;;5016327;28;20482;-81
2023/07/27 08:49:43;;;;;;;2.50;2.20;;;16.80;99.90;;;;;;5018031;28;20456;-81
2023/07/27 08:52:13;;;;;;;2.53;1.53;;;16.90;99.90;;;;;;5017995;28;20491;-81
2023/07/27 08:54:41;;;;;;;2.33;1.80;;;16.90;99.90;;;;;;5018679;28;20547;-79
2023/07/27 08:57:07;;;;;;;2.10;1.70;;;17.00;99.90;;;;;;5018101;28;20450;-81
2023/07/27 08:59:34;;;;;;;2.37;1.70;;;17.10;99.90;;;;;;5019354;28;20474;-81
2023/07/27 09:02:01;;;;;;;2.20;1.87;;;17.10;99.90;;;;;;5018924;28;20606;-81
2023/07/27 09:04:28;;;;;;;1.80;1.53;;;17.20;99.90;;;;;;5018777;28;20482;-81
2023/07/27 09:06:54;;;;;;;2.83;2.10;;;17.10;99.90;;;;;;5017487;28;20455;-81
2023/07/27 09:09:25;;;;;;;3.70;1.83;;;17.10;99.90;;;;;;5027450;28;20462;-81
2023/07/27 09:11:54;;;;;;;1.90;1.70;;;17.10;99.90;;;;;;5022779;28;20494;-81
2023/07/27 09:14:21;;;;;;;1.80;1.40;;;17.10;99.90;;;;;;5017841;28;20486;-80
2023/07/27 09:16:49;;;;;;;2.13;1.40;;;17.20;99.90;;;;;;5017656;28;20455;-82
2023/07/27 09:19:18;;;;;;;1.70;1.60;;;17.20;99.90;;;;;;5016385;28;20920;-78
2023/07/27 09:21:46;;;;;;;2.97;1.40;;;17.10;99.90;;;;;;5018692;28;20458;-78
2023/07/27 09:24:13;;;;;;;2.60;1.43;;;17.10;99.90;;;;;;5017983;28;20572;-79
2023/07/27 09:26:47;;;;;;;1.77;1.50;;;17.10;99.90;;;;;;5017196;28;20463;-81
2023/07/27 09:29:16;;;;;;;2.43;1.77;;;17.00;99.90;;;;;;5018622;28;20456;-79
2023/07/27 09:31:45;;;;;;;2.60;1.27;;;17.00;99.90;;;;;;5018047;28;20458;-79
2023/07/27 09:34:12;;;;;;;2.00;1.17;;;17.00;99.90;;;;;;5020644;28;20501;-82
2023/07/27 09:36:40;;;;;;;3.13;1.90;;;17.00;99.90;;;;;;5019247;28;20483;-79
2023/07/27 09:39:07;;;;;;;1.70;1.30;;;17.10;99.90;;;;;;5020092;28;20459;-78
2023/07/27 09:41:34;;;;;;;2.53;1.33;;;17.00;99.90;;;;;;5020828;28;20464;-78
2023/07/27 09:44:02;;;;;;;1.60;1.30;;;17.10;99.90;;;;;;5038391;28;20466;-79
2023/07/27 09:46:30;;;;;;;1.80;1.30;;;17.20;99.90;;;;;;5038247;28;20521;-79
2023/07/27 09:48:58;;;;;;;1.90;1.30;;;17.20;99.90;;;;;;5019033;28;20865;-79
2023/07/27 09:51:26;;;;;;;2.47;1.50;;;17.30;99.90;;;;;;5017720;28;20461;-79
2023/07/27 09:53:54;;;;;;;1.87;1.30;;;17.30;99.90;;;;;;5016796;28;20479;-79
2023/07/27 09:56:24;;;;;;;2.00;1.23;;;17.40;99.90;;;;;;5021062;28;20470;-78
2023/07/27 09:58:51;;;;;;;1.60;1.20;;;17.40;99.90;;;;;;5007391;28;20463;-78
2023/07/27 10:01:18;;;;;;;2.03;1.20;;;17.40;99.90;;;;;;5018445;28;20465;-80
2023/07/27 10:03:46;;;;;;;1.83;0.97;;;17.40;99.90;;;;;;5020324;28;20849;-79
2023/07/27 10:06:16;;;;;;;1.90;1.40;;;17.50;99.90;;;;;;5017326;28;21269;-81
2023/07/27 10:08:43;;;;;;;1.60;1.00;;;17.50;99.90;;;;;;5022434;28;20454;-78
2023/07/27 10:11:10;;;;;;;2.53;1.60;;;17.50;99.90;;;;;;5022288;28;20450;-77
2023/07/27 10:13:40;;;;;;;3.80;1.70;;;17.60;99.90;;;;;;5020622;28;20493;-78
2023/07/27 10:16:10;;;;;;;2.60;1.33;;;17.60;99.90;;;;;;5024014;28;20464;-76
2023/07/27 10:18:41;;;;;;;1.70;1.07;;;17.60;99.90;;;;;;5040494;28;20458;-78
2023/07/27 10:21:27;;;;;;;2.70;1.20;;;17.60;99.90;;;;;;5037206;28;20454;-79
2023/07/27 10:24:00;;;;;;;1.90;1.30;;;17.60;99.90;;;;;;5061542;23;20435;-79
2023/07/27 10:26:50;;;;;;;3.20;1.10;;;17.60;99.90;;;;;;4986588;28;20473;-79
2023/07/27 10:29:19;;;;;;;1.70;0.90;;;17.70;99.90;;;;;;4997826;28;20533;-79
2023/07/27 10:31:47;;;;;;;2.13;1.13;;;17.70;99.90;;;;;;4995497;28;20451;-78
2023/07/27 10:34:16;;;;;;;2.17;1.03;;;17.80;99.90;;;;;;4996051;28;20505;-78
2023/07/27 10:36:57;;;;;;;2.30;1.20;;;17.90;99.90;;;;;;5004246;28;20465;-77
2023/07/27 10:39:26;;;;;;;1.90;1.20;;;17.90;99.90;;;;;;5004475;28;20443;-79
2023/07/27 10:42:05;;;;;;;2.70;1.43;;;17.90;99.90;;;;;;4996189;28;20459;-79
2023/07/27 10:44:43;;;;;;;2.47;1.43;;;17.90;99.90;;;;;;4995754;28;21052;-79
2023/07/27 10:47:13;;;;;;;1.60;1.10;;;17.90;99.90;;;;;;4994621;28;20468;-79
2023/07/27 10:49:40;;;;;;;1.50;1.07;;;17.90;99.90;;;;;;5002360;28;20983;-78
2023/07/27 10:52:09;;;;;;;2.50;1.20;;;18.00;99.90;;;;;;4996774;28;20469;-78
2023/07/27 10:54:40;;;;;;;1.73;1.20;;;18.10;99.90;;;;;;4996312;28;20478;-78
2023/07/27 10:57:08;;;;;;;1.63;1.00;;;18.00;99.90;;;;;;4995054;28;20466;-77
2023/07/27 10:59:38;;;;;;;1.70;1.00;;;18.00;99.90;;;;;;4995772;28;20455;-79
2023/07/27 11:02:10;;;;;;;2.97;1.47;;;18.10;99.90;;;;;;4996145;28;20539;-78
2023/07/27 11:04:39;;;;;;;2.80;1.87;;;18.10;99.90;;;;;;4996710;28;21038;-78
2023/07/27 11:07:06;;;;;;;2.17;1.37;;;18.10;99.90;;;;;;4992427;28;20451;-79
2023/07/27 11:09:35;;;;;;;2.37;1.50;;;18.10;99.90;;;;;;4994281;28;20465;-78
2023/07/27 11:12:02;;;;;;;1.90;1.60;;;18.20;99.90;;;;;;4994708;28;20458;-77
2023/07/27 11:14:29;;;;;;;2.07;1.63;;;18.10;99.90;;;;;;4994241;28;20500;-78
2023/07/27 11:16:56;;;;;;;2.10;1.57;;;18.10;99.90;;;;;;4977768;28;20496;-77
2023/07/27 11:19:26;;;;;;;2.40;1.70;;;18.20;99.90;;;;;;4997033;28;20464;-78
2023/07/27 11:21:54;;;;;;;2.43;2.00;;;18.10;99.90;;;;;;5000935;28;20468;-78
2023/07/27 11:24:21;;;;;;;3.03;2.70;;;18.10;99.90;;;;;;4997817;28;20500;-78
2023/07/27 11:26:49;;;;;;;2.43;1.97;;;18.10;99.90;;;;;;4974550;28;20439;-78
2023/07/27 11:29:17;;;;;;;3.07;2.37;;;18.10;99.90;;;;;;4987925;28;20462;-78
2023/07/27 11:31:53;;;;;;;3.10;2.70;;;18.20;99.90;;;;;;4994069;28;20549;-78
2023/07/27 11:34:24;;;;;;;2.90;2.60;;;18.20;99.90;;;;;;4996883;28;20498;-78
2023/07/27 11:36:57;;;;;;;4.43;3.63;;;18.20;99.90;;;;;;5002191;28;20458;-78
2023/07/27 11:39:24;;;;;;;4.27;3.73;;;18.20;99.90;;;;;;4991573;28;20910;-77
2023/07/27 11:41:53;;;;;;;4.23;3.80;;;18.20;99.90;;;;;;4990886;28;20542;-81
2023/07/27 11:44:22;;;;;;;8.83;4.00;;;18.20;99.90;;;;;;4994070;28;20891;-79
2023/07/27 11:46:51;;;;;;;4.40;3.43;;;18.20;99.90;;;;;;4982171;28;21046;-80
2023/07/27 11:49:19;;;;;;;4.57;3.33;;;18.30;99.90;;;;;;4981130;28;20458;-79
2023/07/27 11:51:47;;;;;;;4.60;4.17;;;18.20;99.90;;;;;;4993040;28;20458;-80
2023/07/27 11:54:23;;;;;;;5.20;4.00;;;18.20;99.90;;;;;;4995196;28;20497;-78
2023/07/27 11:56:53;;;;;;;3.90;3.33;;;18.10;99.90;;;;;;4994115;28;20446;-79
2023/07/27 11:59:21;;;;;;;3.97;3.57;;;18.20;99.90;;;;;;4994930;28;20451;-79
2023/07/27 12:01:49;;;;;;;4.20;3.70;;;18.20;99.90;;;;;;4995467;28;20496;-79
2023/07/27 12:04:16;;;;;;;3.57;2.60;;;18.30;99.90;;;;;;4995773;28;20477;-78
2023/07/27 12:06:45;;;;;;;3.27;2.97;;;18.30;99.90;;;;;;4994957;28;20464;-79
2023/07/27 12:09:12;;;;;;;3.90;3.50;;;18.30;99.90;;;;;;4995108;28;20457;-79
2023/07/27 12:11:42;;;;;;;3.17;2.87;;;18.40;99.90;;;;;;4995382;28;20540;-79
2023/07/27 12:14:10;;;;;;;3.90;3.50;;;18.50;99.90;;;;;;4996066;28;20490;-79
2023/07/27 12:16:39;;;;;;;3.10;2.80;;;18.70;99.90;;;;;;4994556;28;20458;-79
2023/07/27 12:19:07;;;;;;;3.70;2.63;;;18.70;99.90;;;;;;4995238;28;20462;-79
2023/07/27 12:21:34;;;;;;;3.30;2.70;;;18.80;99.90;;;;;;5002142;28;20524;-79
2023/07/27 12:24:02;;;;;;;2.90;2.60;;;18.80;99.90;;;;;;5009832;28;20481;-79
2023/07/27 12:26:29;;;;;;;3.30;2.50;;;18.80;99.90;;;;;;5005835;28;20450;-79
2023/07/27 12:28:56;;;;;;;3.27;2.97;;;18.80;99.90;;;;;;5004151;28;20589;-77
2023/07/27 12:31:24;;;;;;;4.43;2.90;;;18.90;99.90;;;;;;4963102;28;21276;-78
2023/07/27 12:33:51;;;;;;;3.77;3.37;;;18.90;99.90;;;;;;5005135;28;20828;-78
2023/07/27 12:36:18;;;;;;;3.43;3.13;;;19.00;99.90;;;;;;5002879;28;20458;-79
2023/07/27 12:38:45;;;;;;;3.50;3.20;;;19.00;99.90;;;;;;5010035;28;20460;-78
2023/07/27 12:41:12;;;;;;;3.10;2.80;;;19.10;99.90;;;;;;5013444;28;20486;-80
2023/07/27 12:43:39;;;;;;;3.43;3.13;;;19.10;99.90;;;;;;4998175;28;20470;-78
2023/07/27 12:46:06;;;;;;;3.50;3.20;;;19.00;99.90;;;;;;4998048;28;20964;-79
2023/07/27 12:48:34;;;;;;;2.90;2.70;;;19.10;99.90;;;;;;4999588;28;20456;-78
2023/07/27 12:51:01;;;;;;;2.90;2.50;;;19.20;99.90;;;;;;4998432;28;20969;-78
2023/07/27 12:53:28;;;;;;;5.00;4.47;;;19.30;99.90;;;;;;4998856;28;20576;-79